Latest Coastal Weather Observations for Rottnest Island

IDW60701

Issued at 11:23 am WST Saturday 5 December 2020 (issued every 10 minutes, with the page automatically refreshed every 10 minutes)

About coastal observations | Map of coastal stations | Coastal observations for WA | Marine services | Other Formats
Station Details ID: 009193 Name: ROTTNEST ISLAND Lat: -32.01 Lon: 115.50 Height: 43.1 m
Data from the previous 72 hours. | See also: Recent months at Rottnest Island
Date/Time
WST
Wind Sea
Height
m
Swell Vis
km
Cloud Weather Temp
°C
Press
MSL
hPa
Rain since
9am
mm
Dir  Spd
kts
Gust
kts
Height
m
Period
s
Dir
05/11:00am S 16 21 - - - - - - - 19.0 1020.8 0.0
05/10:30am S 17 21 - - - - - - - 18.6 1020.9 0.0
05/10:00am SSE 15 18 - - - - - - - 18.9 1021.0 0.0
05/09:30am SSE 15 19 - - - - - - - 18.6 1021.1 0.0
05/09:00am SSE 15 20 - - - - - - - 17.7 1021.3 0.0
05/08:30am SSE 15 20 - - - - - - - 17.1 1021.0 0.0
05/08:00am SSE 15 19 - - - - - - - 16.7 1021.2 0.0
05/07:30am SSE 14 19 - - - - - - - 16.5 1021.0 0.0
05/07:00am S 14 17 - - - - - - - 16.6 1020.7 0.0
05/06:30am SSE 14 19 - - - - - - - 16.5 1020.2 0.0
05/06:00am SSE 15 21 - - - - - - - 16.0 1020.0 0.0
05/05:30am SE 12 17 - - - - - - - 16.2 1019.6 0.0
05/05:00am SSE 11 15 - - - - - - - 16.0 1019.3 0.0
05/04:30am SSE 14 19 - - - - - - - 16.3 1019.1 0.0
05/04:00am S 14 21 - - - - - - - 16.7 1018.5 0.0
05/03:30am SSE 11 15 - - - - - - - 16.5 1018.6 0.0
05/03:00am SSE 13 19 - - - - - - - 16.8 1018.3 0.0
05/02:30am S 15 21 - - - - - - - 17.0 1018.1 0.0
05/02:00am S 17 22 - - - - - - - 17.3 1018.0 0.0
05/01:30am SSE 18 24 - - - - - - - 17.2 1017.7 0.0
05/01:00am S 19 23 - - - - - - - 17.3 1017.8 0.0
05/12:30am S 16 21 - - - - - - - 17.7 1017.8 0.0
05/12:00am SSW 15 18 - - - - - - - 17.2 1018.1 0.0
 
Date/Time
WST
Wind Sea
Height
m
Swell Vis
km
Cloud Weather Temp
°C
Press
MSL
hPa
Rain since
9am
mm
Dir  Spd
kts
Gust
kts
Height
m
Period
s
Dir
04/11:30pm SSW 17 21 - - - - - - - 17.2 1017.9 0.0
04/11:00pm SSW 18 22 - - - - - - - 17.2 1018.0 0.0
04/10:30pm SSW 19 23 - - - - - - - 17.7 1018.0 0.0
04/10:00pm SSW 19 23 - - - - - - - 17.7 1017.7 0.0
04/09:30pm SSW 18 23 - - - - - - - 17.8 1017.3 0.0
04/09:00pm SSW 20 25 - - - - - - - 17.7 1017.1 0.0
04/08:30pm SSW 20 25 - - - - - - - 17.8 1016.9 0.0
04/08:00pm SSW 19 23 - - - - - - - 17.8 1017.0 0.0
04/07:30pm SSW 18 22 - - - - - - - 17.8 1016.6 0.0
04/07:00pm SSW 20 24 - - - - - - - 17.9 1016.2 0.0
04/06:30pm SSW 19 24 - - - - - - - 18.2 1015.9 0.0
04/06:00pm SSW 19 25 - - - - - - - 19.1 1015.7 0.0
04/05:30pm SSW 19 25 - - - - - - - 19.7 1015.6 0.0
04/05:00pm SSW 20 24 - - - - - - - 20.0 1015.3 0.0
04/04:30pm SSW 18 24 - - - - - - - 19.8 1015.4 0.0
04/04:00pm SSW 18 23 - - - - - - - 20.7 1015.2 0.0
04/03:30pm SW 20 25 - - - - - - - 20.8 1015.3 0.0
04/03:00pm SW 20 24 - - - - - - - 21.4 1015.5 0.0
04/02:30pm SW 19 23 - - - - - - - 21.2 1015.4 0.0
04/02:00pm WSW 19 24 - - - - - - - 21.0 1015.6 0.0
04/01:30pm WSW 18 22 - - - - - - - 20.6 1015.5 0.0
04/01:00pm WSW 17 20 - - - - - - - 20.8 1015.6 0.0
04/12:30pm WSW 17 20 - - - - - - - 21.5 1015.7 0.0
04/12:00pm WSW 16 21 - - - - - - - 21.7 1015.7 0.0
04/11:30am SW 15 18 - - - - - - - 21.6 1015.7 0.0
04/11:00am WSW 17 20 - - - - - - - 21.2 1015.7 0.0
04/10:30am WSW 16 19 - - - - - - - 20.8 1015.7 0.0
04/10:00am WSW 15 19 - - - - - - - 20.9 1015.7 0.0
04/09:30am WSW 16 19 - - - - - - - 20.3 1015.7 0.0
04/09:00am WSW 15 18 - - - - - - - 20.0 1015.5 0.0
04/08:30am SW 12 15 - - - - - - - 20.1 1015.3 0.0
04/08:00am SW 12 16 - - - - - - - 18.8 1015.3 0.0
04/07:30am SW 14 18 - - - - - - - 19.4 1015.0 0.0
04/07:00am SW 12 16 - - - - - - - 18.0 1014.8 0.0
04/06:30am SSW 11 14 - - - - - - - 18.5 1014.5 0.0
04/06:00am SSW 13 17 - - - - - - - 17.6 1014.1 0.0
04/05:30am SSW 14 17 - - - - - - - 17.3 1014.0 0.0
04/05:00am SSW 15 19 - - - - - - - 17.1 1013.5 0.0
04/04:30am SSW 16 19 - - - - - - - 17.0 1013.3 0.0
04/04:00am SSW 19 23 - - - - - - - 16.9 1012.8 0.0
04/03:30am SSW 19 24 - - - - - - - 17.0 1012.7 0.0
04/03:00am SSW 20 25 - - - - - - - 16.9 1012.4 0.0
04/02:30am SSW 21 27 - - - - - - - 16.9 1012.5 0.0
04/02:00am SSW 23 29 - - - - - - - 17.1 1012.6 0.0
04/01:30am SSW 25 30 - - - - - - - 17.2 1012.5 0.0
04/01:00am SSW 26 32 - - - - - - - 17.2 1012.3 0.0
04/12:43am SSW 24 34 - - - - - - - 17.2 1012.3 0.0
04/12:30am SSW 24 29 - - - - - - - 17.3 1012.6 0.0
04/12:00am SSW 25 32 - - - - - - - 17.3 1012.4 0.0
 
Date/Time
WST
Wind Sea
Height
m
Swell Vis
km
Cloud Weather Temp
°C
Press
MSL
hPa
Rain since
9am
mm
Dir  Spd
kts
Gust
kts
Height
m
Period
s
Dir
03/11:30pm SSW 25 30 - - - - - - - 17.4 1012.6 0.0
03/11:00pm SSW 26 32 - - - - - - - 17.5 1012.5 0.0
03/10:30pm SSW 25 32 - - - - - - - 17.8 1012.5 0.0
03/10:00pm SSW 25 32 - - - - - - - 18.0 1012.2 0.0
03/09:30pm SSW 23 30 - - - - - - - 17.8 1012.4 0.0
03/09:00pm SSW 23 29 - - - - - - - 17.9 1012.1 0.0
03/08:30pm SSW 22 29 - - - - - - - 18.0 1011.9 0.0
03/08:00pm SSW 21 27 - - - - - - - 18.1 1012.1 0.0
03/07:30pm SSW 16 22 - - - - - - - 18.2 1011.9 0.0
03/07:00pm SSW 18 24 - - - - - - - 18.4 1011.7 0.0
03/06:30pm SSW 19 24 - - - - - - - 18.8 1011.8 0.0
03/06:00pm SSW 18 24 - - - - - - - 19.5 1011.6 0.0
03/05:30pm SSW 19 25 - - - - - - - 19.9 1011.3 0.0
03/05:00pm SSW 20 25 - - - - - - - 19.9 1011.2 0.0
03/04:30pm SW 21 25 - - - - - - - 20.2 1011.6 0.0
03/04:00pm SSW 22 27 - - - - - - - 20.5 1011.4 0.0
03/03:30pm SSW 21 27 - - - - - - - 20.8 1011.8 0.0
03/03:00pm SSW 21 24 - - - - - - - 20.9 1011.8 0.0
03/02:30pm SSW 19 24 - - - - - - - 21.4 1011.9 0.0
03/02:00pm SSW 18 21 - - - - - - - 22.0 1012.2 0.0
03/01:30pm SSW 18 21 - - - - - - - 21.0 1012.5 0.0
03/01:00pm SSW 17 21 - - - - - - - 20.9 1012.9 0.0
03/12:30pm SSW 17 19 - - - - - - - 21.0 1013.1 0.0
03/12:00pm SSW 16 18 - - - - - - - 21.0 1013.4 0.0
03/11:30am SSW 16 19 - - - - - - - 19.8 1013.6 0.0
03/11:00am S 14 17 - - - - - - - 20.7 1013.9 0.0
03/10:30am S 13 15 - - - - - - - 19.9 1014.2 0.0
03/10:00am S 14 17 - - - - - - - 20.3 1014.5 0.0
03/09:30am S 14 16 - - - - - - - 19.2 1014.6 0.0
03/09:00am SSE 12 15 - - - - - - - 18.5 1015.0 0.0
03/08:30am SSE 13 16 - - - - - - - 18.5 1015.1 0.0
03/08:00am SSE 11 15 - - - - - - - 18.1 1015.4 0.0
03/07:30am SSE 11 15 - - - - - - - 17.7 1015.5 0.0
03/07:00am SSE 12 15 - - - - - - - 17.5 1015.5 0.0
03/06:30am SE 12 16 - - - - - - - 17.0 1015.7 0.0
03/06:00am SE 12 14 - - - - - - - 16.7 1015.4 0.0
03/05:30am SSE 12 15 - - - - - - - 16.2 1015.5 0.0
03/05:00am SE 12 16 - - - - - - - 16.3 1015.3 0.0
03/04:30am SSE 13 16 - - - - - - - 16.6 1015.1 0.0
03/04:00am SSE 13 19 - - - - - - - 16.7 1014.6 0.0
03/03:30am SSE 16 19 - - - - - - - 16.7 1014.7 0.0
03/03:00am SSE 18 22 - - - - - - - 17.0 1014.8 0.0
03/02:30am S 19 23 - - - - - - - 17.1 1014.7 0.0
03/02:00am S 18 23 - - - - - - - 17.2 1015.0 0.0
03/01:30am S 21 25 - - - - - - - 17.2 1014.8 0.0
03/01:00am S 23 27 - - - - - - - 17.4 1015.0 0.0
03/12:30am S 25 29 - - - - - - - 17.3 1015.3 0.0
03/12:00am S 24 29 - - - - - - - 17.3 1015.6 0.0
 
Date/Time
WST
Wind Sea
Height
m
Swell Vis
km
Cloud Weather Temp
°C
Press
MSL
hPa
Rain since
9am
mm
Dir  Spd
kts
Gust
kts
Height
m
Period
s
Dir
02/11:30pm S 24 29 - - - - - - - 17.5 1015.8 0.0
02/11:00pm S 22 26 - - - - - - - 17.8 1016.3 0.0
02/10:30pm S 21 27 - - - - - - - 17.7 1016.3 0.0
02/10:00pm SSW 22 27 - - - - - - - 17.6 1016.5 0.0
02/09:30pm SSW 21 25 - - - - - - - 17.6 1016.7 0.0
02/09:00pm SSW 21 26 - - - - - - - 17.5 1016.7 0.0
02/08:30pm SSW 19 23 - - - - - - - 17.6 1016.9 0.0
02/08:00pm S 18 23 - - - - - - - 17.6 1017.0 0.0
02/07:30pm SSW 21 26 - - - - - - - 17.8 1016.9 0.0
02/07:00pm SSW 20 25 - - - - - - - 18.0 1017.0 0.0
02/06:30pm SSW 19 25 - - - - - - - 18.4 1016.7 0.0
02/06:00pm SSW 20 25 - - - - - - - 18.6 1016.8 0.0
02/05:30pm SSW 20 26 - - - - - - - 19.0 1016.5 0.0
02/05:00pm SSW 21 26 - - - - - - - 19.7 1016.4 0.0
02/04:30pm SSW 19 24 - - - - - - - 19.9 1016.4 0.0
02/04:00pm SSW 19 24 - - - - - - - 19.8 1016.5 0.0
02/03:30pm SSW 18 23 - - - - - - - 20.2 1016.4 0.0
02/03:00pm SSW 20 23 - - - - - - - 20.1 1016.5 0.0
02/02:30pm SSW 19 23 - - - - - - - 19.9 1016.8 0.0
02/02:00pm SSW 18 21 - - - - - - - 19.9 1017.2 0.0
02/01:30pm SSW 18 20 - - - - - - - 20.9 1017.2 0.0
02/01:00pm SSW 18 20 - - - - - - - 20.1 1017.6 0.0
02/12:30pm SSW 17 20 - - - - - - - 19.8 1017.8 0.0
02/12:00pm SSW 15 19 - - - - - - - 19.8 1018.1 0.0
02/11:30am SSW 14 17 - - - - - - - 19.4 1018.2 0.0

Other formats

Comma delimited format used in spreadsheet applications
http://www.bom.gov.au/fwo/IDW60701/IDW60701.94602.axf

JavaScript Object Notation format (JSON) in row-major order
http://www.bom.gov.au/fwo/IDW60701/IDW60701.94602.json

Data quality

Most of these data are generated automatically and are frequently updated. Quality checks on data are not normally performed. It is possible for incorrect values to appear. Refer to information at About Latest Weather Observations and please check the disclaimer before using these data.